Time;durP1;ratioP1;P1;durP2;ratioP2;P2;SDS_P1;SDS_P2;PMS_P1;PMS_P2;Temp;Humidity;BMP_temperature;BMP_pressure;BME280_temperature;BME280_humidity;BME280_pressure;Samples;Min_cycle;Max_cycle;Signal;HPM_P1;HPM_P2
2024/02/05 00:01:30;;;;;;;13.80;5.82;;;;;;;;;;4997825;28;20029;-80
2024/02/05 00:03:59;;;;;;;13.40;6.00;;;;;;;;;;4998653;28;20883;-79
2024/02/05 00:06:25;;;;;;;13.85;6.10;;;;;;;;;;4998621;28;20127;-80
2024/02/05 00:08:51;;;;;;;;;;;;;;;;;;4997020;28;20037;-81
2024/02/05 00:11:20;;;;;;;15.60;6.35;;;;;;;;;;4999510;28;19913;-80
2024/02/05 00:13:47;;;;;;;13.05;6.68;;;;;;;;;;4998435;28;20869;-80
2024/02/05 00:16:13;;;;;;;16.67;8.82;;;;;;;;;;4993973;28;20038;-80
2024/02/05 00:18:44;;;;;;;13.73;7.50;;;;;;;;;;4991901;28;20036;-79
2024/02/05 00:21:10;;;;;;;15.65;7.22;;;;;;;;;;5002806;28;20130;-81
2024/02/05 00:23:36;;;;;;;15.18;8.88;;;;;;;;;;4996576;28;20025;-81
2024/02/05 00:26:03;;;;;;;15.63;8.30;;;;;;;;;;5000960;28;20061;-80
2024/02/05 00:28:29;;;;;;;;;;;;;;;;;;4996876;28;20437;-81
2024/02/05 00:30:58;;;;;;;16.87;6.87;;;;;;;;;;4997237;28;19952;-81
2024/02/05 00:33:24;;;;;;;13.85;5.72;;;;;;;;;;5017339;28;20037;-83
2024/02/05 00:35:51;;;;;;;12.25;4.78;;;;;;;;;;5016541;28;20397;-82
2024/02/05 00:38:17;;;;;;;11.40;4.70;;;;;;;;;;4999660;28;20051;-80
2024/02/05 00:40:47;;;;;;;17.30;4.93;;;;;;;;;;5014893;28;20040;-81
2024/02/05 00:43:14;;;;;;;23.27;14.93;;;;;;;;;;4994191;28;20072;-81
2024/02/05 00:45:42;;;;;;;34.35;24.48;;;;;;;;;;5012734;28;20401;-81
2024/02/05 00:48:09;;;;;;;46.70;32.53;;;;;;;;;;4988375;28;20160;-81
2024/02/05 00:50:38;;;;;;;57.78;40.58;;;;;;;;;;5015583;28;20033;-80
2024/02/05 00:53:05;;;;;;;71.25;46.47;;;;;;;;;;5022331;28;20025;-81
2024/02/05 00:55:31;;;;;;;41.47;26.95;;;;;;;;;;4995823;28;20042;-81
2024/02/05 00:57:57;;;;;;;28.00;14.68;;;;;;;;;;4996543;28;20040;-81
2024/02/05 01:00:24;;;;;;;14.95;7.25;;;;;;;;;;5015121;28;20094;-82
2024/02/05 01:02:53;;;;;;;13.98;4.85;;;;;;;;;;4997521;28;20021;-81
2024/02/05 01:05:20;;;;;;;11.30;4.25;;;;;;;;;;5012043;28;20300;-81
2024/02/05 01:07:46;;;;;;;;;;;;;;;;;;5013921;28;23273;-81
2024/02/05 01:10:14;;;;;;;12.68;4.85;;;;;;;;;;5015149;28;20007;-80
2024/02/05 01:12:42;;;;;;;13.05;5.05;;;;;;;;;;4995357;28;20018;-80
2024/02/05 01:15:08;;;;;;;11.13;4.10;;;;;;;;;;4995857;28;20068;-80
2024/02/05 01:17:34;;;;;;;12.20;4.20;;;;;;;;;;4996105;28;20064;-80
2024/02/05 01:20:05;;;;;;;16.35;7.20;;;;;;;;;;5013346;28;20027;-80
2024/02/05 01:22:32;;;;;;;11.27;4.47;;;;;;;;;;5012043;28;20052;-80
2024/02/05 01:24:58;;;;;;;12.02;5.55;;;;;;;;;;5014525;28;20120;-81
2024/02/05 01:27:30;;;;;;;11.63;5.63;;;;;;;;;;5010545;28;20486;-80
2024/02/05 01:29:59;;;;;;;10.57;4.18;;;;;;;;;;5008413;28;20481;-80
2024/02/05 01:32:26;;;;;;;13.63;5.07;;;;;;;;;;4993767;28;20042;-80
2024/02/05 01:34:53;;;;;;;11.52;4.97;;;;;;;;;;4994726;28;20037;-80
2024/02/05 01:37:20;;;;;;;12.00;4.82;;;;;;;;;;4993303;28;20049;-80
2024/02/05 01:39:47;;;;;;;14.48;6.20;;;;;;;;;;4992892;28;20884;-81
2024/02/05 01:42:15;;;;;;;10.77;4.63;;;;;;;;;;4994942;28;20053;-82
2024/02/05 01:44:41;;;;;;;11.38;3.97;;;;;;;;;;4992471;28;20030;-82
2024/02/05 01:47:12;;;;;;;11.38;3.83;;;;;;;;;;4992001;28;20080;-83
2024/02/05 01:49:39;;;;;;;9.80;3.75;;;;;;;;;;4991442;28;20042;-82
2024/02/05 01:52:11;;;;;;;10.48;3.78;;;;;;;;;;4973934;28;20056;-80
2024/02/05 01:54:39;;;;;;;10.55;4.03;;;;;;;;;;4992273;28;20041;-80
2024/02/05 01:57:10;;;;;;;11.52;3.75;;;;;;;;;;4986565;28;20131;-80
2024/02/05 01:59:37;;;;;;;9.52;3.78;;;;;;;;;;4989560;28;20128;-80
2024/02/05 02:02:06;;;;;;;9.85;3.75;;;;;;;;;;4993000;28;20096;-81
2024/02/05 02:04:35;;;;;;;10.45;3.90;;;;;;;;;;4990925;28;21176;-80
2024/02/05 02:07:10;;;;;;;11.38;4.20;;;;;;;;;;4992153;28;20113;-82
2024/02/05 02:09:37;;;;;;;10.90;3.90;;;;;;;;;;4987282;28;20528;-80
2024/02/05 02:12:04;;;;;;;8.40;3.40;;;;;;;;;;4993977;28;20064;-80
2024/02/05 02:14:31;;;;;;;9.70;3.30;;;;;;;;;;4989445;28;20121;-80
2024/02/05 02:16:58;;;;;;;10.43;3.40;;;;;;;;;;4990962;28;20045;-80
2024/02/05 02:19:33;;;;;;;9.20;3.30;;;;;;;;;;4992261;28;20160;-80
2024/02/05 02:22:14;;;;;;;11.23;3.72;;;;;;;;;;4993179;28;20715;-80
2024/02/05 02:24:41;;;;;;;9.88;3.67;;;;;;;;;;4993970;28;20283;-80
2024/02/05 02:27:07;;;;;;;12.75;3.58;;;;;;;;;;4991726;28;20028;-81
2024/02/05 02:29:34;;;;;;;11.95;4.22;;;;;;;;;;4990308;28;20037;-80
2024/02/05 02:32:26;;;;;;;11.85;3.17;;;;;;;;;;4992765;28;20627;-80
2024/02/05 02:34:55;;;;;;;9.43;3.42;;;;;;;;;;4989942;28;20120;-80
2024/02/05 02:37:22;;;;;;;9.80;3.40;;;;;;;;;;4992481;28;20062;-80
2024/02/05 02:40:05;;;;;;;9.50;3.30;;;;;;;;;;4992629;28;20033;-80
2024/02/05 02:42:34;;;;;;;8.90;3.08;;;;;;;;;;4994448;28;20371;-82
2024/02/05 02:45:01;;;;;;;9.18;3.20;;;;;;;;;;4982275;28;20043;-83
2024/02/05 02:47:27;;;;;;;11.23;3.40;;;;;;;;;;4989075;28;20044;-82
2024/02/05 02:49:53;;;;;;;10.80;5.22;;;;;;;;;;4998118;28;20136;-82
2024/02/05 02:52:20;;;;;;;10.13;5.00;;;;;;;;;;4993826;28;20037;-82
2024/02/05 02:54:47;;;;;;;17.85;9.25;;;;;;;;;;4994044;28;20099;-82
2024/02/05 02:57:15;;;;;;;14.52;8.55;;;;;;;;;;4997072;28;20032;-82
2024/02/05 02:59:41;;;;;;;13.27;6.22;;;;;;;;;;4996817;28;20473;-82
2024/02/05 03:02:08;;;;;;;11.55;4.60;;;;;;;;;;4995135;28;20112;-82
2024/02/05 03:04:38;;;;;;;10.55;4.28;;;;;;;;;;4996956;28;20118;-83
2024/02/05 03:07:05;;;;;;;10.05;3.80;;;;;;;;;;4995384;28;20415;-82
2024/02/05 03:09:32;;;;;;;8.38;3.00;;;;;;;;;;4992270;28;20621;-83
2024/02/05 03:11:58;;;;;;;8.85;3.25;;;;;;;;;;4993984;28;20034;-83
2024/02/05 03:14:25;;;;;;;10.73;3.65;;;;;;;;;;4995094;28;20052;-83
2024/02/05 03:16:53;;;;;;;8.68;3.05;;;;;;;;;;4991571;28;20121;-83
2024/02/05 03:19:19;;;;;;;8.52;3.00;;;;;;;;;;4996409;28;20478;-84
2024/02/05 03:21:45;;;;;;;8.40;3.08;;;;;;;;;;4995151;28;20037;-83
2024/02/05 03:24:11;;;;;;;9.95;3.00;;;;;;;;;;4996230;28;20037;-82
2024/02/05 03:26:39;;;;;;;10.10;3.00;;;;;;;;;;4997174;28;20630;-83
2024/02/05 03:29:07;;;;;;;11.00;3.13;;;;;;;;;;5003721;28;20512;-83
2024/02/05 03:31:33;;;;;;;9.68;3.00;;;;;;;;;;5015195;28;20029;-83
2024/02/05 03:33:59;;;;;;;8.77;2.88;;;;;;;;;;5000241;28;20029;-84
2024/02/05 03:36:26;;;;;;;9.65;3.33;;;;;;;;;;5003070;28;20670;-82
2024/02/05 03:38:53;;;;;;;9.02;2.92;;;;;;;;;;4997537;28;20803;-82
2024/02/05 03:41:21;;;;;;;8.43;2.70;;;;;;;;;;5017696;28;20606;-85
2024/02/05 03:43:48;;;;;;;10.13;2.85;;;;;;;;;;5015552;28;20025;-84
2024/02/05 03:46:14;;;;;;;8.00;2.85;;;;;;;;;;5006517;28;20033;-84
2024/02/05 03:48:51;;;;;;;8.63;2.72;;;;;;;;;;4997092;28;20029;-84
2024/02/05 03:51:17;;;;;;;8.20;2.70;;;;;;;;;;5017738;28;20118;-84
2024/02/05 03:53:43;;;;;;;9.55;3.00;;;;;;;;;;4995749;28;20040;-84
2024/02/05 03:56:12;;;;;;;8.23;3.00;;;;;;;;;;5022898;28;20175;-84
2024/02/05 03:58:39;;;;;;;8.73;2.70;;;;;;;;;;4997037;28;20025;-84
2024/02/05 04:01:04;;;;;;;;;;;;;;;;;;4995446;28;20026;-84
2024/02/05 04:03:33;;;;;;;9.03;3.00;;;;;;;;;;5018172;28;19949;-84
2024/02/05 04:05:59;;;;;;;10.00;2.90;;;;;;;;;;5018165;28;20613;-84
2024/02/05 04:08:26;;;;;;;7.78;2.75;;;;;;;;;;5019789;28;20125;-84
2024/02/05 04:10:52;;;;;;;8.77;2.92;;;;;;;;;;4998608;28;20034;-84
2024/02/05 04:13:21;;;;;;;8.73;2.95;;;;;;;;;;4997646;28;20481;-83
2024/02/05 04:15:47;;;;;;;8.85;3.15;;;;;;;;;;5017288;28;20474;-82
2024/02/05 04:18:15;;;;;;;9.00;2.92;;;;;;;;;;5019816;28;20112;-82
2024/02/05 04:20:42;;;;;;;10.05;2.67;;;;;;;;;;5021474;28;20170;-83
2024/02/05 04:23:10;;;;;;;8.85;2.63;;;;;;;;;;5019786;28;20013;-83
2024/02/05 04:25:38;;;;;;;9.93;3.03;;;;;;;;;;5014932;28;20088;-82
2024/02/05 04:28:05;;;;;;;7.10;2.50;;;;;;;;;;5018522;28;20672;-82
2024/02/05 04:30:37;;;;;;;9.30;2.75;;;;;;;;;;5003430;28;20049;-81
2024/02/05 04:33:04;;;;;;;9.13;2.78;;;;;;;;;;5005996;28;20071;-83
2024/02/05 04:35:30;;;;;;;10.07;2.92;;;;;;;;;;5001972;28;20029;-81
2024/02/05 04:37:58;;;;;;;8.30;2.78;;;;;;;;;;5019161;28;20033;-83
2024/02/05 04:40:25;;;;;;;8.73;2.72;;;;;;;;;;4999063;28;20071;-82
2024/02/05 04:42:52;;;;;;;9.02;2.80;;;;;;;;;;5022392;28;20045;-82
2024/02/05 04:45:18;;;;;;;8.98;2.90;;;;;;;;;;5018385;28;20109;-82
2024/02/05 04:47:44;;;;;;;9.45;2.97;;;;;;;;;;5018894;28;21327;-82
2024/02/05 04:50:10;;;;;;;8.30;2.95;;;;;;;;;;5013075;28;20140;-83
2024/02/05 04:52:37;;;;;;;9.75;3.13;;;;;;;;;;5015755;28;20044;-82
2024/02/05 04:55:04;;;;;;;7.75;2.78;;;;;;;;;;4999568;28;20507;-83
2024/02/05 04:57:31;;;;;;;9.80;3.00;;;;;;;;;;4981593;28;20045;-82
2024/02/05 04:59:57;;;;;;;9.75;2.88;;;;;;;;;;4998862;28;20025;-82
2024/02/05 05:02:23;;;;;;;;;;;;;;;;;;5000225;28;20033;-82
2024/02/05 05:04:51;;;;;;;9.43;3.00;;;;;;;;;;5014907;28;19931;-82
2024/02/05 05:07:19;;;;;;;8.45;2.88;;;;;;;;;;5021576;28;20044;-82
2024/02/05 05:09:46;;;;;;;9.18;2.95;;;;;;;;;;4996971;28;20507;-81
2024/02/05 05:12:13;;;;;;;8.13;2.92;;;;;;;;;;5015285;28;20117;-82
2024/02/05 05:14:41;;;;;;;7.80;2.88;;;;;;;;;;4996047;28;20536;-82
2024/02/05 05:17:08;;;;;;;11.82;3.15;;;;;;;;;;4998135;28;20036;-84
2024/02/05 05:19:36;;;;;;;10.15;3.05;;;;;;;;;;5014293;28;20491;-83
2024/02/05 05:22:04;;;;;;;7.82;2.78;;;;;;;;;;4998876;28;20033;-84
2024/02/05 05:24:32;;;;;;;8.40;2.78;;;;;;;;;;5014554;28;20118;-84
2024/02/05 05:26:59;;;;;;;9.35;3.40;;;;;;;;;;5017701;28;20036;-84
2024/02/05 05:29:25;;;;;;;8.63;3.00;;;;;;;;;;4997147;28;20061;-84
2024/02/05 05:31:52;;;;;;;8.90;3.05;;;;;;;;;;5001642;28;20038;-84
2024/02/05 05:34:19;;;;;;;9.38;4.03;;;;;;;;;;4997685;28;20033;-84
2024/02/05 05:36:45;;;;;;;8.85;3.35;;;;;;;;;;4994602;28;20065;-84
2024/02/05 05:39:11;;;;;;;9.50;3.20;;;;;;;;;;4997014;28;20053;-83
2024/02/05 05:41:37;;;;;;;15.73;4.10;;;;;;;;;;4990828;28;20037;-84
2024/02/05 05:44:05;;;;;;;9.80;3.33;;;;;;;;;;4997305;28;20673;-84
2024/02/05 05:46:31;;;;;;;9.50;3.42;;;;;;;;;;4997670;28;20040;-84
2024/02/05 05:48:58;;;;;;;14.55;3.50;;;;;;;;;;5002378;28;20034;-82
2024/02/05 05:51:24;;;;;;;13.93;3.92;;;;;;;;;;4999222;28;20144;-82
2024/02/05 05:53:51;;;;;;;15.60;3.70;;;;;;;;;;4998027;28;20037;-81
2024/02/05 05:56:19;;;;;;;10.90;3.30;;;;;;;;;;4998598;28;20026;-83
2024/02/05 05:58:52;;;;;;;13.20;3.45;;;;;;;;;;4991029;28;20138;-82
2024/02/05 06:01:22;;;;;;;11.15;3.28;;;;;;;;;;4996111;28;20040;-82
2024/02/05 06:03:49;;;;;;;9.93;3.40;;;;;;;;;;4976599;28;20108;-82
2024/02/05 06:06:15;;;;;;;11.25;3.40;;;;;;;;;;4996668;28;20045;-83
2024/02/05 06:08:41;;;;;;;9.43;3.30;;;;;;;;;;4994537;28;20039;-82
2024/02/05 06:11:07;;;;;;;12.30;3.80;;;;;;;;;;5001611;28;20042;-83
2024/02/05 06:13:33;;;;;;;10.80;3.63;;;;;;;;;;4994632;28;20101;-82
2024/02/05 06:16:01;;;;;;;9.73;3.60;;;;;;;;;;4998721;28;20029;-83
2024/02/05 06:18:31;;;;;;;10.88;4.03;;;;;;;;;;4997237;28;20060;-86
2024/02/05 06:20:58;;;;;;;9.98;3.60;;;;;;;;;;4995847;28;20145;-83
2024/02/05 06:23:27;;;;;;;12.45;3.30;;;;;;;;;;4996599;28;20120;-84
2024/02/05 06:25:54;;;;;;;11.77;3.13;;;;;;;;;;4995024;28;20038;-83
2024/02/05 06:28:22;;;;;;;11.68;3.53;;;;;;;;;;4997446;28;20715;-83
2024/02/05 06:30:50;;;;;;;12.10;3.45;;;;;;;;;;4998898;28;20056;-84
2024/02/05 06:33:17;;;;;;;12.70;4.38;;;;;;;;;;5017588;28;20674;-83
2024/02/05 06:35:45;;;;;;;12.23;4.13;;;;;;;;;;4996456;28;20041;-84
2024/02/05 06:38:11;;;;;;;13.38;4.50;;;;;;;;;;5014581;28;20024;-84
2024/02/05 06:40:38;;;;;;;9.57;3.80;;;;;;;;;;5000867;28;20045;-84
2024/02/05 06:43:06;;;;;;;10.20;4.03;;;;;;;;;;5016950;28;20126;-83
2024/02/05 06:45:38;;;;;;;10.73;4.10;;;;;;;;;;5010071;28;20096;-83
2024/02/05 06:48:05;;;;;;;11.25;4.80;;;;;;;;;;4995170;28;20056;-83
2024/02/05 06:50:32;;;;;;;12.45;4.68;;;;;;;;;;5017199;28;20044;-84
2024/02/05 06:53:00;;;;;;;14.48;4.88;;;;;;;;;;5012509;28;20053;-83
2024/02/05 06:55:28;;;;;;;16.15;4.78;;;;;;;;;;4996676;28;20418;-83
2024/02/05 06:57:54;;;;;;;12.20;4.88;;;;;;;;;;4982219;28;20037;-83
2024/02/05 07:00:21;;;;;;;13.43;4.80;;;;;;;;;;5011666;28;20021;-82
2024/02/05 07:02:50;;;;;;;13.35;4.22;;;;;;;;;;4992012;28;20044;-82
2024/02/05 07:05:20;;;;;;;12.70;4.43;;;;;;;;;;5011838;28;20556;-83
2024/02/05 07:07:48;;;;;;;10.73;4.20;;;;;;;;;;4993379;28;20053;-82
2024/02/05 07:10:14;;;;;;;12.65;4.60;;;;;;;;;;5011688;28;20116;-83
2024/02/05 07:12:41;;;;;;;10.48;3.53;;;;;;;;;;4995983;28;20099;-82
2024/02/05 07:15:08;;;;;;;11.25;4.32;;;;;;;;;;5014415;28;20489;-82
2024/02/05 07:17:35;;;;;;;12.23;3.97;;;;;;;;;;5009513;28;20033;-82
2024/02/05 07:20:03;;;;;;;13.23;4.28;;;;;;;;;;4994891;28;20026;-82
2024/02/05 07:22:30;;;;;;;10.05;3.95;;;;;;;;;;4979294;28;20738;-82
2024/02/05 07:25:03;;;;;;;13.77;4.45;;;;;;;;;;4996412;28;20226;-82
2024/02/05 07:27:29;;;;;;;13.98;3.83;;;;;;;;;;5010694;28;20029;-83
2024/02/05 07:29:56;;;;;;;10.30;4.25;;;;;;;;;;4991997;28;20186;-82
2024/02/05 07:32:24;;;;;;;11.23;4.55;;;;;;;;;;4977059;28;20103;-82
2024/02/05 07:34:52;;;;;;;12.68;4.55;;;;;;;;;;4990449;28;20073;-82
2024/02/05 07:37:18;;;;;;;10.52;4.38;;;;;;;;;;4990967;28;20057;-80
2024/02/05 07:39:44;;;;;;;12.07;4.75;;;;;;;;;;4987364;28;20099;-81
2024/02/05 07:42:10;;;;;;;11.73;4.78;;;;;;;;;;4998383;28;20019;-82
2024/02/05 07:44:36;;;;;;;15.13;4.40;;;;;;;;;;4997631;28;20116;-82
2024/02/05 07:47:04;;;;;;;11.35;4.75;;;;;;;;;;5000345;28;20053;-82
2024/02/05 07:49:35;;;;;;;15.70;4.78;;;;;;;;;;4998062;28;20017;-81
2024/02/05 07:52:01;;;;;;;13.57;4.65;;;;;;;;;;4999040;28;20041;-83
2024/02/05 07:54:28;;;;;;;13.95;4.80;;;;;;;;;;5002204;28;20075;-81
2024/02/05 07:56:57;;;;;;;17.20;4.47;;;;;;;;;;4993999;28;20032;-81
2024/02/05 07:59:23;;;;;;;15.93;4.30;;;;;;;;;;4989772;28;20034;-81
2024/02/05 08:01:50;;;;;;;11.75;3.78;;;;;;;;;;4988889;28;20133;-82
2024/02/05 08:04:17;;;;;;;11.77;3.80;;;;;;;;;;4976078;28;20042;-82
2024/02/05 08:06:45;;;;;;;15.70;4.80;;;;;;;;;;4991296;28;20714;-83
2024/02/05 08:09:12;;;;;;;;;;;;;;;;;;4999220;28;20480;-83
2024/02/05 08:11:38;;;;;;;;;;;;;;;;;;4992319;28;19913;-83
2024/02/05 08:14:06;;;;;;;13.02;5.15;;;;;;;;;;4994890;28;19967;-82
2024/02/05 08:16:32;;;;;;;16.25;5.80;;;;;;;;;;4995981;28;20022;-83
2024/02/05 08:18:58;;;;;;;;;;;;;;;;;;4995351;28;20420;-82
2024/02/05 08:21:25;;;;;;;16.52;6.05;;;;;;;;;;4993705;28;20603;-82
2024/02/05 08:23:51;;;;;;;14.50;4.70;;;;;;;;;;4995734;28;20040;-82
2024/02/05 08:26:18;;;;;;;16.27;4.75;;;;;;;;;;4997322;28;20026;-81
2024/02/05 08:28:46;;;;;;;11.85;4.07;;;;;;;;;;4994297;28;20447;-81
2024/02/05 08:31:12;;;;;;;12.30;4.32;;;;;;;;;;4998935;28;20029;-81
2024/02/05 08:33:39;;;;;;;13.23;4.50;;;;;;;;;;5009416;28;20112;-82
2024/02/05 08:36:07;;;;;;;13.93;4.78;;;;;;;;;;5010978;28;20598;-82
2024/02/05 08:38:33;;;;;;;12.43;4.35;;;;;;;;;;4975423;28;20807;-83
2024/02/05 08:40:59;;;;;;;13.25;4.35;;;;;;;;;;4992926;28;20044;-82
2024/02/05 08:43:26;;;;;;;14.18;4.18;;;;;;;;;;4992904;28;20573;-83
2024/02/05 08:45:54;;;;;;;15.45;5.10;;;;;;;;;;5015108;28;20079;-83
2024/02/05 08:48:20;;;;;;;18.92;10.65;;;;;;;;;;5020416;28;20124;-82
2024/02/05 08:50:46;;;;;;;19.90;10.43;;;;;;;;;;5014056;28;20985;-83
2024/02/05 08:53:13;;;;;;;25.15;14.63;;;;;;;;;;5012877;28;20044;-84
2024/02/05 08:55:39;;;;;;;22.63;12.02;;;;;;;;;;4996825;28;20048;-81
2024/02/05 08:58:08;;;;;;;23.95;16.40;;;;;;;;;;5019206;28;20348;-83
2024/02/05 09:00:35;;;;;;;22.48;11.70;;;;;;;;;;5010094;28;20037;-81
2024/02/05 09:03:02;;;;;;;17.70;7.45;;;;;;;;;;4997997;28;20306;-81
2024/02/05 09:05:32;;;;;;;12.80;5.53;;;;;;;;;;5009813;28;20037;-81
2024/02/05 09:07:58;;;;;;;16.50;5.90;;;;;;;;;;5015932;28;20033;-81
2024/02/05 09:10:26;;;;;;;13.70;5.05;;;;;;;;;;4993350;28;20553;-82
2024/02/05 09:12:53;;;;;;;13.82;6.05;;;;;;;;;;4995991;28;20057;-81
2024/02/05 09:15:19;;;;;;;18.38;7.03;;;;;;;;;;5012917;28;20036;-81
2024/02/05 09:17:47;;;;;;;22.30;14.00;;;;;;;;;;5011048;28;20123;-81
2024/02/05 09:20:14;;;;;;;19.13;8.82;;;;;;;;;;5018501;28;20056;-82
2024/02/05 09:22:45;;;;;;;15.15;8.43;;;;;;;;;;5013878;28;20035;-81
2024/02/05 09:25:13;;;;;;;21.85;13.77;;;;;;;;;;4996255;28;20025;-83
2024/02/05 09:27:39;;;;;;;17.73;10.90;;;;;;;;;;5001388;28;20822;-84
2024/02/05 09:30:09;;;;;;;14.50;8.23;;;;;;;;;;4981977;28;20065;-81
2024/02/05 09:32:37;;;;;;;14.48;6.68;;;;;;;;;;5000429;28;20100;-83
2024/02/05 09:35:05;;;;;;;16.45;5.50;;;;;;;;;;5018252;28;20154;-84
2024/02/05 09:37:31;;;;;;;14.30;4.97;;;;;;;;;;5013236;28;20029;-84
2024/02/05 09:40:00;;;;;;;12.98;4.45;;;;;;;;;;4998826;28;20027;-84
2024/02/05 09:42:27;;;;;;;12.35;4.40;;;;;;;;;;5013915;28;20036;-85
2024/02/05 09:44:55;;;;;;;13.98;4.05;;;;;;;;;;4995493;28;20044;-83
2024/02/05 09:47:24;;;;;;;14.02;4.80;;;;;;;;;;5017874;28;20106;-82
2024/02/05 09:49:55;;;;;;;13.00;5.28;;;;;;;;;;5012833;28;20095;-84
2024/02/05 09:52:24;;;;;;;12.60;4.90;;;;;;;;;;5008694;28;20033;-84
2024/02/05 09:54:51;;;;;;;12.20;4.10;;;;;;;;;;5010043;28;20034;-84
2024/02/05 09:57:20;;;;;;;12.20;4.03;;;;;;;;;;5015264;28;20040;-82
2024/02/05 09:59:47;;;;;;;13.98;5.85;;;;;;;;;;5009631;28;22317;-84
2024/02/05 10:02:16;;;;;;;12.88;5.15;;;;;;;;;;5014138;28;20038;-84
2024/02/05 10:04:44;;;;;;;14.30;4.60;;;;;;;;;;4976325;28;20045;-80
2024/02/05 10:07:16;;;;;;;12.73;4.13;;;;;;;;;;5014264;28;20065;-80
2024/02/05 10:09:42;;;;;;;14.35;4.57;;;;;;;;;;5010369;28;20122;-82
2024/02/05 10:12:13;;;;;;;12.73;4.32;;;;;;;;;;5015693;28;20033;-82
2024/02/05 10:14:44;;;;;;;11.48;4.60;;;;;;;;;;4982664;28;20037;-84
2024/02/05 10:17:11;;;;;;;14.07;6.55;;;;;;;;;;4984280;28;20165;-84
2024/02/05 10:19:38;;;;;;;16.02;5.85;;;;;;;;;;4984437;28;20543;-84
2024/02/05 10:22:07;;;;;;;12.73;5.10;;;;;;;;;;5001809;28;20024;-80
2024/02/05 10:24:39;;;;;;;12.52;4.70;;;;;;;;;;5011096;28;20032;-82
2024/02/05 10:27:05;;;;;;;15.10;5.88;;;;;;;;;;5015676;28;20035;-82
2024/02/05 10:29:34;;;;;;;12.02;4.28;;;;;;;;;;4990837;28;20041;-80
2024/02/05 10:32:01;;;;;;;12.88;4.50;;;;;;;;;;4995258;28;21232;-79
2024/02/05 10:34:28;;;;;;;11.25;4.32;;;;;;;;;;4995131;28;20080;-79
2024/02/05 10:37:07;;;;;;;12.13;5.60;;;;;;;;;;4999168;28;20027;-80
2024/02/05 10:39:34;;;;;;;18.40;4.40;;;;;;;;;;4992703;28;20179;-83
2024/02/05 10:42:00;;;;;;;14.13;3.97;;;;;;;;;;4992468;28;20037;-80
2024/02/05 10:44:26;;;;;;;13.60;3.80;;;;;;;;;;4990070;28;20036;-81
2024/02/05 10:46:54;;;;;;;13.57;3.75;;;;;;;;;;4991989;28;20037;-83
2024/02/05 10:49:22;;;;;;;13.45;3.85;;;;;;;;;;4991827;28;20073;-83
2024/02/05 10:51:50;;;;;;;10.43;3.85;;;;;;;;;;4988807;28;20037;-83
2024/02/05 10:54:18;;;;;;;9.18;3.55;;;;;;;;;;4993159;28;20044;-82
2024/02/05 10:56:48;;;;;;;12.18;4.22;;;;;;;;;;4992584;28;20024;-83
2024/02/05 10:59:16;;;;;;;11.10;3.97;;;;;;;;;;4990025;28;20046;-84
2024/02/05 11:01:52;;;;;;;10.68;3.60;;;;;;;;;;5006616;28;20044;-83
2024/02/05 11:04:21;;;;;;;11.68;3.92;;;;;;;;;;4990456;28;20042;-84
2024/02/05 11:06:48;;;;;;;14.25;3.55;;;;;;;;;;4988869;28;20061;-83
2024/02/05 11:09:16;;;;;;;13.48;5.53;;;;;;;;;;4992636;28;20057;-82
2024/02/05 11:11:46;;;;;;;15.02;6.78;;;;;;;;;;4986785;28;20085;-83
2024/02/05 11:14:14;;;;;;;19.40;10.13;;;;;;;;;;5004356;28;20378;-83
2024/02/05 11:16:44;;;;;;;12.73;4.32;;;;;;;;;;4993370;28;20923;-82
2024/02/05 11:19:13;;;;;;;10.40;3.60;;;;;;;;;;4993189;28;20034;-82
2024/02/05 11:21:47;;;;;;;16.10;3.88;;;;;;;;;;4992881;28;20126;-84
2024/02/05 11:24:18;;;;;;;10.13;3.47;;;;;;;;;;4995843;28;20102;-83
2024/02/05 11:26:47;;;;;;;12.18;3.60;;;;;;;;;;4995843;28;20037;-83
2024/02/05 11:29:23;;;;;;;10.50;3.90;;;;;;;;;;4996569;28;20042;-82
2024/02/05 11:31:50;;;;;;;14.18;4.20;;;;;;;;;;5017270;28;20053;-83
2024/02/05 11:34:17;;;;;;;12.40;4.35;;;;;;;;;;5021202;28;20059;-83
2024/02/05 11:36:48;;;;;;;9.90;3.80;;;;;;;;;;5020231;28;20033;-83
2024/02/05 11:39:17;;;;;;;14.25;4.05;;;;;;;;;;5019490;28;20103;-83
2024/02/05 11:41:46;;;;;;;10.98;3.85;;;;;;;;;;5016545;28;20914;-84
2024/02/05 11:44:13;;;;;;;10.70;3.72;;;;;;;;;;5019701;28;20108;-85
2024/02/05 11:46:39;;;;;;;10.95;3.38;;;;;;;;;;5016317;28;20034;-83
2024/02/05 11:49:07;;;;;;;10.88;3.53;;;;;;;;;;5021878;28;20037;-84
2024/02/05 11:51:33;;;;;;;10.48;3.72;;;;;;;;;;5005610;28;20072;-84
2024/02/05 11:54:00;;;;;;;13.70;3.47;;;;;;;;;;5016733;28;20261;-82
2024/02/05 11:56:28;;;;;;;11.90;3.22;;;;;;;;;;4995116;28;20698;-84
2024/02/05 11:58:55;;;;;;;14.10;3.40;;;;;;;;;;5005618;28;20025;-84
2024/02/05 12:01:23;;;;;;;13.85;3.78;;;;;;;;;;5027519;28;20119;-84
2024/02/05 12:03:51;;;;;;;10.95;3.42;;;;;;;;;;5024549;28;20029;-84
2024/02/05 12:06:19;;;;;;;12.85;3.10;;;;;;;;;;5027414;28;20052;-84
2024/02/05 12:08:46;;;;;;;11.00;3.55;;;;;;;;;;5024374;28;20030;-83
2024/02/05 12:11:15;;;;;;;10.80;3.78;;;;;;;;;;5020752;28;20064;-84
2024/02/05 12:14:15;;;;;;;12.95;4.35;;;;;;;;;;5017602;28;20263;-84
2024/02/05 12:16:42;;;;;;;14.23;3.83;;;;;;;;;;5016022;28;21336;-83
2024/02/05 12:19:20;;;;;;;9.55;3.88;;;;;;;;;;5002358;28;20064;-84
2024/02/05 12:21:48;;;;;;;13.10;4.10;;;;;;;;;;5017062;28;20041;-84
2024/02/05 12:24:14;;;;;;;11.75;4.53;;;;;;;;;;5005338;28;20482;-84
2024/02/05 12:26:40;;;;;;;13.95;4.68;;;;;;;;;;5016679;28;20108;-83
2024/02/05 12:29:06;;;;;;;13.30;4.13;;;;;;;;;;5020941;28;20061;-83
2024/02/05 12:31:35;;;;;;;11.07;4.32;;;;;;;;;;5020150;28;20504;-84
2024/02/05 12:34:01;;;;;;;9.80;3.45;;;;;;;;;;5020283;28;20025;-84
2024/02/05 12:36:30;;;;;;;12.15;3.95;;;;;;;;;;5018992;28;20621;-83
2024/02/05 12:38:56;;;;;;;11.60;3.42;;;;;;;;;;5018886;28;20756;-85
2024/02/05 12:41:24;;;;;;;11.20;4.00;;;;;;;;;;5005659;28;20036;-82
2024/02/05 12:43:51;;;;;;;10.80;3.35;;;;;;;;;;5016405;28;20029;-83
2024/02/05 12:46:20;;;;;;;15.13;4.22;;;;;;;;;;5024684;28;20049;-83
2024/02/05 12:48:47;;;;;;;13.40;4.45;;;;;;;;;;5008956;28;20040;-84
2024/02/05 12:51:13;;;;;;;12.70;4.75;;;;;;;;;;5011914;28;20681;-83
2024/02/05 12:53:41;;;;;;;10.35;4.20;;;;;;;;;;5023016;28;20037;-81
2024/02/05 12:56:07;;;;;;;15.65;4.07;;;;;;;;;;5028929;28;20063;-81
2024/02/05 12:58:35;;;;;;;9.43;3.20;;;;;;;;;;5033048;28;20115;-83
2024/02/05 13:01:02;;;;;;;11.85;3.65;;;;;;;;;;5036849;28;20037;-84
2024/02/05 13:03:32;;;;;;;11.93;3.47;;;;;;;;;;5033815;28;20029;-83
2024/02/05 13:05:59;;;;;;;12.45;3.85;;;;;;;;;;5024719;28;20025;-83
2024/02/05 13:08:25;;;;;;;11.52;3.28;;;;;;;;;;5015145;28;20140;-84
2024/02/05 13:10:52;;;;;;;11.98;3.97;;;;;;;;;;5019575;28;20056;-83
2024/02/05 13:13:19;;;;;;;10.75;3.35;;;;;;;;;;5036152;28;20437;-83
2024/02/05 13:15:45;;;;;;;10.77;3.72;;;;;;;;;;5029742;28;20037;-83
2024/02/05 13:18:12;;;;;;;11.10;3.22;;;;;;;;;;5023186;28;20050;-84
2024/02/05 13:20:39;;;;;;;11.20;3.10;;;;;;;;;;5013191;28;20048;-84
2024/02/05 13:23:09;;;;;;;12.18;3.53;;;;;;;;;;5017746;28;20017;-83
2024/02/05 13:25:35;;;;;;;13.15;3.38;;;;;;;;;;5013988;28;20706;-83
2024/02/05 13:28:02;;;;;;;12.38;4.05;;;;;;;;;;5016586;28;20037;-80
2024/02/05 13:30:28;;;;;;;10.70;3.83;;;;;;;;;;5012928;28;20049;-82
2024/02/05 13:32:55;;;;;;;11.25;3.28;;;;;;;;;;5003454;28;20512;-81
2024/02/05 13:35:21;;;;;;;11.77;3.50;;;;;;;;;;5017112;28;20037;-82
2024/02/05 13:37:48;;;;;;;11.63;4.00;;;;;;;;;;5012677;28;20037;-83
2024/02/05 13:40:14;;;;;;;11.20;3.45;;;;;;;;;;5010904;28;20604;-82
2024/02/05 13:42:47;;;;;;;12.40;3.13;;;;;;;;;;4998201;28;20038;-82
2024/02/05 13:45:13;;;;;;;8.68;2.80;;;;;;;;;;5011451;28;20055;-82
2024/02/05 13:47:44;;;;;;;9.88;2.92;;;;;;;;;;5009835;28;20049;-82
2024/02/05 13:50:12;;;;;;;10.80;3.67;;;;;;;;;;4995270;28;20037;-82
2024/02/05 13:52:40;;;;;;;10.02;2.80;;;;;;;;;;5008133;28;20980;-82
2024/02/05 13:55:10;;;;;;;10.35;3.25;;;;;;;;;;5010537;28;20095;-81
2024/02/05 13:57:37;;;;;;;10.57;2.90;;;;;;;;;;5008394;28;20118;-82
2024/02/05 14:00:05;;;;;;;12.18;3.08;;;;;;;;;;5011536;28;20029;-82
2024/02/05 14:02:34;;;;;;;16.00;3.58;;;;;;;;;;4989913;28;20041;-81
2024/02/05 14:05:00;;;;;;;10.88;3.53;;;;;;;;;;4997375;28;20866;-81
2024/02/05 14:07:29;;;;;;;8.82;2.95;;;;;;;;;;5007146;28;20116;-83
2024/02/05 14:09:55;;;;;;;9.80;2.90;;;;;;;;;;5012498;28;20029;-84
2024/02/05 14:12:22;;;;;;;10.25;2.95;;;;;;;;;;5011700;28;20034;-81
2024/02/05 14:14:49;;;;;;;12.18;3.30;;;;;;;;;;5008273;28;20079;-81
2024/02/05 14:17:19;;;;;;;10.45;3.10;;;;;;;;;;5011396;28;20077;-82
2024/02/05 14:19:50;;;;;;;11.75;3.17;;;;;;;;;;5009070;28;25187;-82
2024/02/05 14:22:16;;;;;;;11.05;3.08;;;;;;;;;;5009485;28;20060;-82
2024/02/05 14:24:42;;;;;;;12.23;3.22;;;;;;;;;;5010104;28;20031;-83
2024/02/05 14:27:10;;;;;;;11.05;3.42;;;;;;;;;;5011512;28;20052;-81
2024/02/05 14:29:43;;;;;;;11.82;3.28;;;;;;;;;;5013141;28;20107;-80
2024/02/05 14:32:09;;;;;;;11.77;3.35;;;;;;;;;;4996018;28;20856;-80
2024/02/05 14:34:35;;;;;;;12.55;3.17;;;;;;;;;;4994848;28;20043;-80
2024/02/05 14:37:01;;;;;;;12.23;3.28;;;;;;;;;;5014385;28;20120;-83
2024/02/05 14:39:28;;;;;;;8.85;2.90;;;;;;;;;;5008300;28;20037;-81